Time;durP1;ratioP1;P1;durP2;ratioP2;P2;SDS_P1;SDS_P2;PMS_P1;PMS_P2;Temp;Humidity;BMP_temperature;BMP_pressure;BME280_temperature;BME280_humidity;BME280_pressure;Samples;Min_cycle;Max_cycle;Signal;HPM_P1;HPM_P2
2022/08/21 00:01:58;;;;;;;31.60;5.58;;;;;;;19.66;85.70;99197.03;1803440;79;21051;-76
2022/08/21 00:04:24;;;;;;;31.23;5.95;;;;;;;19.66;85.81;99197.52;1802981;79;21574;-75
2022/08/21 00:06:51;;;;;;;36.42;5.62;;;;;;;19.63;85.99;99194.59;1803324;79;21007;-75
2022/08/21 00:09:18;;;;;;;31.40;6.97;;;;;;;19.62;85.91;99200.08;1803213;79;21047;-75
2022/08/21 00:11:46;;;;;;;37.17;5.87;;;;;;;19.60;86.16;99201.53;1803117;79;20984;-76
2022/08/21 00:14:13;;;;;;;26.07;5.35;;;;;;;19.60;86.14;99201.98;1803241;79;21086;-75
2022/08/21 00:16:40;;;;;;;27.55;5.55;;;;;;;19.58;86.18;99187.42;1803131;79;21789;-76
2022/08/21 00:19:07;;;;;;;21.00;4.90;;;;;;;19.58;86.27;99183.42;1803386;79;21483;-75
2022/08/21 00:21:35;;;;;;;24.92;5.95;;;;;;;19.57;86.24;99183.54;1803291;79;21557;-75
2022/08/21 00:24:02;;;;;;;22.30;4.87;;;;;;;19.57;86.17;99189.75;1803226;79;21546;-75
2022/08/21 00:26:29;;;;;;;25.17;5.53;;;;;;;19.58;86.34;99188.76;1803143;79;21027;-75
2022/08/21 00:28:56;;;;;;;29.18;5.85;;;;;;;19.54;86.59;99189.98;1803013;79;21229;-76
2022/08/21 00:31:22;;;;;;;24.18;6.22;;;;;;;19.52;86.62;99199.92;1803187;79;21105;-75
2022/08/21 00:33:49;;;;;;;30.08;5.97;;;;;;;19.51;86.60;99195.55;1801892;79;21062;-75
2022/08/21 00:36:16;;;;;;;30.90;5.47;;;;;;;19.52;86.70;99200.39;1791980;80;21420;-75
2022/08/21 00:38:42;;;;;;;23.12;5.45;;;;;;;19.51;86.77;99203.55;1791592;80;21050;-76
2022/08/21 00:41:09;;;;;;;33.88;6.00;;;;;;;19.48;86.97;99203.78;1791726;80;21145;-76
2022/08/21 00:43:37;;;;;;;28.02;5.55;;;;;;;19.46;87.25;99200.39;1791822;80;21074;-75
2022/08/21 00:46:05;;;;;;;24.60;5.12;;;;;;;19.46;87.56;99199.89;1791641;80;21027;-75
2022/08/21 00:48:32;;;;;;;25.02;5.70;;;;;;;19.45;87.63;99208.02;1791931;80;21026;-75
2022/08/21 00:51:08;;;;;;;36.05;6.83;;;;;;;19.43;87.82;99204.62;1791640;80;21502;-76
2022/08/21 00:53:41;;;;;;;23.22;5.92;;;;;;;19.42;88.01;99208.27;1792391;79;21127;-76
2022/08/21 00:56:08;;;;;;;30.25;5.65;;;;;;;19.43;87.98;99208.63;1782987;80;21095;-75
2022/08/21 00:58:36;;;;;;;24.52;5.60;;;;;;;19.43;88.21;99211.29;1782965;80;21031;-76
2022/08/21 01:01:04;;;;;;;24.45;6.25;;;;;;;19.43;88.41;99206.83;1782948;80;21043;-76
2022/08/21 01:03:30;;;;;;;29.98;6.53;;;;;;;19.42;88.41;99210.94;1783168;80;21102;-76
2022/08/21 01:05:57;;;;;;;27.77;6.85;;;;;;;19.41;88.52;99215.41;1783315;80;22231;-76
2022/08/21 01:08:23;;;;;;;36.63;6.83;;;;;;;19.41;88.58;99210.56;1782947;80;21866;-75
2022/08/21 01:10:50;;;;;;;25.17;5.87;;;;;;;19.41;88.62;99207.89;1783352;79;21016;-75
2022/08/21 01:13:18;;;;;;;34.48;7.00;;;;;;;19.42;88.71;99206.94;1783091;80;21404;-75
2022/08/21 01:15:48;;;;;;;26.80;5.72;;;;;;;19.42;88.59;99210.94;1783552;80;21051;-75
2022/08/21 01:18:14;;;;;;;40.58;6.33;;;;;;;19.41;88.47;99205.23;1783180;80;21127;-75
2022/08/21 01:20:44;;;;;;;25.05;5.42;;;;;;;19.43;88.34;99211.29;1783211;80;21005;-75
2022/08/21 01:23:11;;;;;;;27.73;6.35;;;;;;;19.44;88.30;99208.51;1783326;80;21500;-76
2022/08/21 01:25:38;;;;;;;25.88;6.15;;;;;;;19.42;88.26;99202.94;1783178;80;20989;-75
2022/08/21 01:28:12;;;;;;;26.07;6.08;;;;;;;19.43;88.09;99211.29;1783606;80;22306;-75
2022/08/21 01:30:39;;;;;;;21.25;5.12;;;;;;;19.45;87.92;99209.34;1783481;80;21908;-75
2022/08/21 01:33:05;;;;;;;22.98;5.62;;;;;;;19.47;87.69;99198.94;1783330;80;21487;-75
2022/08/21 01:35:32;;;;;;;21.93;5.33;;;;;;;19.47;87.69;99197.61;1783091;80;21036;-75
2022/08/21 01:37:58;;;;;;;25.45;5.30;;;;;;;19.46;87.65;99208.39;1783296;80;21043;-75
2022/08/21 01:40:26;;;;;;;33.78;5.17;;;;;;;19.45;87.59;99209.34;1783172;80;21024;-75
2022/08/21 01:42:53;;;;;;;34.40;5.53;;;;;;;19.45;87.49;99214.69;1783316;80;21224;-75
2022/08/21 01:45:19;;;;;;;23.87;5.22;;;;;;;19.44;87.56;99202.33;1783039;80;21079;-75
2022/08/21 01:47:46;;;;;;;30.70;5.15;;;;;;;19.43;87.57;99208.63;1782806;80;21064;-75
2022/08/21 01:50:16;;;;;;;30.77;5.33;;;;;;;19.41;87.47;99207.89;1782767;80;21589;-75
2022/08/21 01:52:43;;;;;;;28.23;5.65;;;;;;;19.42;87.46;99208.27;1783023;80;21161;-75
2022/08/21 01:55:10;;;;;;;31.23;5.55;;;;;;;19.40;87.46;99207.52;1782965;80;21891;-75
2022/08/21 01:57:36;;;;;;;22.05;5.50;;;;;;;19.36;87.48;99200.23;1782831;80;21561;-75
2022/08/21 02:00:09;;;;;;;36.25;6.03;;;;;;;19.33;87.64;99200.95;1782810;80;21449;-75
2022/08/21 02:02:40;;;;;;;28.70;5.22;;;;;;;19.33;87.65;99196.95;1783169;80;21554;-75
2022/08/21 02:05:08;;;;;;;21.10;5.28;;;;;;;19.33;87.57;99196.95;1783147;80;21036;-75
2022/08/21 02:07:42;;;;;;;29.00;5.55;;;;;;;19.33;87.57;99196.46;1783015;80;21186;-75
2022/08/21 02:10:10;;;;;;;28.02;4.72;;;;;;;19.31;87.51;99194.40;1782981;80;21522;-75
2022/08/21 02:12:36;;;;;;;26.30;4.87;;;;;;;19.30;87.44;99188.22;1782998;80;21173;-75
2022/08/21 02:15:04;;;;;;;22.58;4.90;;;;;;;19.33;87.43;99191.62;1782743;80;22261;-75
2022/08/21 02:17:43;;;;;;;24.37;5.22;;;;;;;19.32;87.40;99189.45;1782980;80;21048;-74
2022/08/21 02:20:13;;;;;;;34.92;5.35;;;;;;;19.33;87.33;99187.62;1783198;80;21162;-75
2022/08/21 02:22:40;;;;;;;28.90;4.60;;;;;;;19.33;87.33;99188.95;1782646;80;21047;-75
2022/08/21 02:25:07;;;;;;;27.42;4.50;;;;;;;19.35;87.12;99179.01;1783194;80;21048;-74
2022/08/21 02:27:44;;;;;;;27.07;5.70;;;;;;;19.36;87.04;99183.39;1782766;80;21028;-75
2022/08/21 02:30:14;;;;;;;22.95;5.12;;;;;;;19.36;87.04;99180.72;1807529;78;21081;-75
2022/08/21 02:32:41;;;;;;;26.95;5.85;;;;;;;19.35;86.98;99186.55;1759876;81;23141;-74
2022/08/21 02:35:09;;;;;;;31.87;5.78;;;;;;;19.37;87.04;99181.09;1759859;81;21578;-75
2022/08/21 02:37:48;;;;;;;27.22;5.08;;;;;;;19.38;86.86;99178.28;1757590;81;21510;-75
2022/08/21 02:40:15;;;;;;;33.18;4.78;;;;;;;19.38;86.78;99177.44;1757615;81;21062;-75
2022/08/21 02:42:43;;;;;;;23.05;4.85;;;;;;;19.39;86.74;99183.16;1757850;81;20991;-75
2022/08/21 02:45:11;;;;;;;21.62;4.37;;;;;;;19.40;86.61;99175.04;1757214;81;21875;-75
2022/08/21 02:47:38;;;;;;;27.00;5.30;;;;;;;19.41;86.44;99176.72;1757695;81;21636;-76
2022/08/21 02:50:05;;;;;;;22.25;5.25;;;;;;;19.43;86.37;99176.61;1757466;81;21067;-75
2022/08/21 02:52:33;;;;;;;20.75;4.50;;;;;;;19.40;86.36;99171.50;1758002;81;21105;-75
2022/08/21 02:55:00;;;;;;;28.60;5.30;;;;;;;19.39;86.31;99180.49;1757443;81;21063;-76
2022/08/21 02:57:27;;;;;;;45.00;6.58;;;;;;;19.39;86.25;99178.66;1757599;81;21333;-76
2022/08/21 02:59:53;;;;;;;28.98;5.30;;;;;;;19.36;86.15;99180.72;1770261;81;21086;-76
2022/08/21 03:02:21;;;;;;;25.90;5.62;;;;;;;19.33;86.19;99187.62;1764974;81;21201;-75
2022/08/21 03:04:47;;;;;;;23.32;5.03;;;;;;;19.28;86.23;99192.83;1764895;81;21089;-75
2022/08/21 03:07:15;;;;;;;24.72;5.03;;;;;;;19.25;86.25;99198.39;1770084;81;21583;-75
2022/08/21 03:09:41;;;;;;;36.23;5.33;;;;;;;19.23;86.27;99195.46;1764898;81;21263;-76
2022/08/21 03:12:08;;;;;;;34.23;4.50;;;;;;;19.19;86.35;99198.84;1767334;80;21019;-76
2022/08/21 03:14:35;;;;;;;31.70;4.80;;;;;;;19.14;86.46;99203.68;1751187;81;20956;-75
2022/08/21 03:17:01;;;;;;;26.25;4.85;;;;;;;19.09;86.55;99193.84;1750982;81;21660;-75
2022/08/21 03:19:28;;;;;;;25.60;5.12;;;;;;;19.09;86.59;99200.02;1751144;81;21054;-75
2022/08/21 03:21:54;;;;;;;32.03;5.33;;;;;;;19.07;86.60;99193.11;1751232;81;21055;-75
2022/08/21 03:24:21;;;;;;;31.52;6.15;;;;;;;19.04;86.69;99194.67;1751142;81;20984;-75
2022/08/21 03:26:47;;;;;;;28.75;4.90;;;;;;;19.03;86.74;99194.29;1751360;81;21557;-75
2022/08/21 03:29:13;;;;;;;31.68;5.08;;;;;;;19.01;86.66;99191.73;1751035;81;21004;-75
2022/08/21 03:31:40;;;;;;;25.68;5.08;;;;;;;19.01;86.70;99192.23;1751524;81;21141;-76
2022/08/21 03:34:06;;;;;;;32.98;4.75;;;;;;;19.00;86.65;99203.88;1750869;81;21192;-75
2022/08/21 03:36:33;;;;;;;37.48;5.60;;;;;;;18.98;86.47;99208.45;1751256;81;21537;-75
2022/08/21 03:39:02;;;;;;;24.45;4.90;;;;;;;18.97;86.40;99208.94;1751336;81;21027;-75
2022/08/21 03:41:28;;;;;;;28.05;4.35;;;;;;;18.96;86.16;99209.05;1751283;81;21499;-75
2022/08/21 03:43:55;;;;;;;24.67;4.87;;;;;;;18.92;86.08;99210.61;1751386;81;21031;-76
2022/08/21 03:46:21;;;;;;;28.20;4.60;;;;;;;18.90;86.04;99216.55;1751121;81;21802;-75
2022/08/21 03:48:48;;;;;;;26.15;5.05;;;;;;;18.88;85.96;99218.48;1751402;81;21085;-75
2022/08/21 03:51:15;;;;;;;19.60;4.70;;;;;;;18.88;85.67;99217.64;1751443;81;21056;-76
2022/08/21 03:53:41;;;;;;;32.28;5.35;;;;;;;18.89;85.49;99208.16;1751307;81;21011;-75
2022/08/21 03:56:08;;;;;;;37.53;5.00;;;;;;;18.89;85.40;99208.66;1751327;81;21553;-75
2022/08/21 03:58:35;;;;;;;22.77;4.35;;;;;;;18.88;85.25;99206.48;1751433;81;21198;-75
2022/08/21 04:01:02;;;;;;;25.62;4.55;;;;;;;18.88;85.20;99208.31;1751248;81;21117;-75
2022/08/21 04:03:29;;;;;;;29.87;5.20;;;;;;;18.89;85.02;99213.98;1721904;81;21153;-75
2022/08/21 04:05:55;;;;;;;28.92;5.03;;;;;;;18.90;84.80;99217.88;1764740;81;22251;-75
2022/08/21 04:08:22;;;;;;;26.30;5.08;;;;;;;18.90;84.62;99209.88;1751450;81;21066;-75
2022/08/21 04:10:52;;;;;;;30.20;4.80;;;;;;;18.92;84.51;99211.94;1750900;81;21203;-75
2022/08/21 04:13:20;;;;;;;29.90;5.15;;;;;;;18.92;84.32;99218.61;1755672;81;21054;-76
2022/08/21 04:15:47;;;;;;;22.50;5.22;;;;;;;18.93;84.11;99216.33;1773101;80;21064;-76
2022/08/21 04:18:14;;;;;;;32.80;5.55;;;;;;;18.92;84.03;99217.77;1803484;79;21016;-76
2022/08/21 04:20:41;;;;;;;28.25;5.40;;;;;;;18.91;83.94;99220.92;1803110;79;21019;-75
2022/08/21 04:23:08;;;;;;;37.33;5.25;;;;;;;18.91;83.91;99224.92;1803193;79;21094;-76
2022/08/21 04:25:35;;;;;;;35.90;5.90;;;;;;;18.93;83.93;99222.98;1802894;79;20980;-76
2022/08/21 04:28:02;;;;;;;29.32;5.37;;;;;;;18.96;83.83;99219.72;1802889;79;21043;-76
2022/08/21 04:30:29;;;;;;;22.27;5.53;;;;;;;18.97;83.74;99229.43;1803886;78;21079;-76
2022/08/21 04:32:57;;;;;;;23.18;4.60;;;;;;;18.99;83.80;99231.00;1776256;80;21143;-75
2022/08/21 04:35:24;;;;;;;31.27;6.10;;;;;;;19.04;83.65;99234.67;1776511;80;21231;-75
2022/08/21 04:37:51;;;;;;;26.30;4.75;;;;;;;19.09;83.50;99235.17;1775571;80;21035;-76
2022/08/21 04:40:19;;;;;;;29.90;5.22;;;;;;;19.14;83.24;99232.17;1776759;80;21063;-75
2022/08/21 04:42:49;;;;;;;27.98;5.08;;;;;;;19.17;83.02;99227.95;1776014;80;21126;-75
2022/08/21 04:45:20;;;;;;;27.50;5.50;;;;;;;19.19;82.69;99225.52;1776521;80;21031;-75
2022/08/21 04:47:49;;;;;;;28.35;4.85;;;;;;;19.24;82.50;99227.36;1776010;79;21190;-76
2022/08/21 04:50:17;;;;;;;33.15;5.58;;;;;;;19.33;82.28;99231.63;1776095;80;22226;-76
2022/08/21 04:52:45;;;;;;;32.00;5.30;;;;;;;19.37;81.31;99227.78;1774655;80;21075;-76
2022/08/21 04:55:12;;;;;;;27.75;5.00;;;;;;;19.39;80.97;99224.51;1776058;80;22269;-76
2022/08/21 04:57:39;;;;;;;34.90;5.60;;;;;;;19.42;80.39;99224.28;1775904;80;21474;-76
2022/08/21 05:00:07;;;;;;;32.90;5.55;;;;;;;19.45;80.05;99225.36;1772471;80;21574;-76
2022/08/21 05:02:34;;;;;;;35.68;4.95;;;;;;;19.47;79.33;99228.78;1750642;81;20987;-76
2022/08/21 05:05:00;;;;;;;25.52;4.08;;;;;;;19.47;79.10;99236.30;1760674;81;21777;-75
2022/08/21 05:07:28;;;;;;;24.30;4.53;;;;;;;19.48;78.97;99228.67;1760615;81;21084;-76
2022/08/21 05:09:55;;;;;;;37.38;4.90;;;;;;;19.52;78.94;99229.28;1760878;81;21508;-75
2022/08/21 05:12:22;;;;;;;19.67;4.10;;;;;;;19.55;77.96;99237.52;1763411;80;21239;-75
2022/08/21 05:14:48;;;;;;;22.70;4.28;;;;;;;19.52;78.03;99235.08;1768651;81;21107;-76
2022/08/21 05:17:15;;;;;;;29.20;4.35;;;;;;;19.53;77.99;99238.97;1768704;81;21036;-75
2022/08/21 05:19:41;;;;;;;23.70;4.17;;;;;;;19.54;77.87;99234.01;1768767;81;21654;-75
2022/08/21 05:22:09;;;;;;;23.18;4.30;;;;;;;19.55;77.98;99229.05;1768951;81;21132;-75
2022/08/21 05:24:36;;;;;;;37.28;5.47;;;;;;;19.58;77.82;99230.13;1768785;81;21289;-75
2022/08/21 05:27:03;;;;;;;22.87;5.12;;;;;;;19.59;77.79;99233.17;1768680;81;21100;-76
2022/08/21 05:29:29;;;;;;;28.32;5.20;;;;;;;19.65;77.99;99232.71;1768775;81;21559;-76
2022/08/21 05:31:56;;;;;;;24.67;4.70;;;;;;;19.73;77.79;99233.93;1768763;81;20981;-75
2022/08/21 05:34:23;;;;;;;23.45;4.10;;;;;;;19.78;77.05;99235.30;1769077;81;21092;-75
2022/08/21 05:36:50;;;;;;;24.15;4.50;;;;;;;19.81;76.37;99221.72;1769000;81;21615;-76
2022/08/21 05:39:17;;;;;;;25.85;5.05;;;;;;;19.84;76.50;99221.48;1768508;81;21092;-75
2022/08/21 05:41:43;;;;;;;23.47;3.80;;;;;;;19.90;76.68;99218.81;1768685;81;21516;-76
2022/08/21 05:44:09;;;;;;;25.80;4.55;;;;;;;19.97;76.51;99219.17;1768990;81;21014;-76
2022/08/21 05:46:36;;;;;;;22.98;4.53;;;;;;;20.04;76.54;99223.93;1769158;81;21037;-75
2022/08/21 05:49:03;;;;;;;30.40;4.87;;;;;;;20.14;76.76;99219.19;1768947;81;21987;-75
2022/08/21 05:51:29;;;;;;;32.40;5.28;;;;;;;20.20;75.95;99218.70;1768626;81;21091;-75
2022/08/21 05:53:57;;;;;;;36.68;5.40;;;;;;;20.27;75.48;99216.40;1768636;81;21069;-75
2022/08/21 05:56:23;;;;;;;21.20;4.10;;;;;;;20.34;75.13;99224.28;1768764;81;21068;-75
2022/08/21 05:58:50;;;;;;;22.05;4.20;;;;;;;20.42;74.97;99217.84;1768770;81;21056;-75
2022/08/21 06:01:16;;;;;;;20.17;3.83;;;;;;;20.50;74.32;99219.91;1768672;81;21829;-76
2022/08/21 06:03:42;;;;;;;27.07;4.25;;;;;;;20.56;74.17;99223.40;1768650;81;21080;-76
2022/08/21 06:06:09;;;;;;;22.90;4.28;;;;;;;20.62;73.65;99224.25;1768624;81;21100;-75
2022/08/21 06:08:37;;;;;;;22.02;5.17;;;;;;;20.67;73.31;99227.43;1768551;81;21108;-75
2022/08/21 06:11:04;;;;;;;29.67;5.12;;;;;;;20.72;73.03;99222.55;1768688;81;20973;-75
2022/08/21 06:13:31;;;;;;;29.50;4.70;;;;;;;20.75;72.82;99220.97;1768845;80;22092;-76
2022/08/21 06:16:13;;;;;;;30.43;5.60;;;;;;;20.83;73.07;99224.84;1768508;81;21037;-76
2022/08/21 06:18:39;;;;;;;27.15;4.42;;;;;;;20.91;73.19;99225.06;1768834;81;21041;-76
2022/08/21 06:21:06;;;;;;;29.50;4.97;;;;;;;20.99;72.62;99234.64;1768913;81;21041;-76
2022/08/21 06:23:33;;;;;;;30.48;4.28;;;;;;;21.04;72.28;99224.41;1769045;81;21013;-76
2022/08/21 06:26:02;;;;;;;29.82;5.30;;;;;;;21.06;72.13;99225.13;1768661;81;21184;-76
2022/08/21 06:28:28;;;;;;;24.40;4.28;;;;;;;21.12;72.33;99221.95;1768604;81;21536;-76
2022/08/21 06:30:55;;;;;;;28.20;4.95;;;;;;;21.18;71.89;99219.23;1768820;81;21069;-76
2022/08/21 06:33:21;;;;;;;20.50;4.90;;;;;;;21.23;71.69;99222.87;1768937;81;21457;-76
2022/08/21 06:35:48;;;;;;;28.80;4.62;;;;;;;21.29;71.59;99223.71;1769115;81;21040;-77
2022/08/21 06:38:14;;;;;;;23.80;4.45;;;;;;;21.35;70.92;99219.20;1779948;79;21125;-76
2022/08/21 06:40:41;;;;;;;33.73;4.80;;;;;;;21.42;71.35;99221.70;1815627;79;21659;-76
2022/08/21 06:43:11;;;;;;;27.37;4.83;;;;;;;21.49;71.17;99216.21;1815535;79;21109;-76
2022/08/21 06:45:37;;;;;;;28.65;4.20;;;;;;;21.56;70.55;99218.38;1815417;79;21439;-76
2022/08/21 06:48:04;;;;;;;30.80;4.62;;;;;;;21.60;70.55;99210.43;1815540;79;21581;-76
2022/08/21 06:50:32;;;;;;;32.03;4.37;;;;;;;21.66;70.46;99209.42;1815443;79;21509;-77
2022/08/21 06:53:09;;;;;;;29.20;4.80;;;;;;;21.75;70.48;99213.12;1815630;79;21022;-77
2022/08/21 06:55:36;;;;;;;26.97;4.78;;;;;;;21.82;69.91;99211.64;1815326;79;21021;-75
2022/08/21 06:58:04;;;;;;;36.15;5.42;;;;;;;21.89;69.83;99210.12;1815604;79;21066;-76
2022/08/21 07:00:31;;;;;;;32.85;4.42;;;;;;;21.97;69.76;99206.79;1815516;79;20975;-76
2022/08/21 07:02:58;;;;;;;25.12;4.40;;;;;;;22.04;69.31;99211.95;1815232;79;21068;-76
2022/08/21 07:05:27;;;;;;;36.58;5.92;;;;;;;22.14;69.54;99216.03;1815343;79;21029;-76
2022/08/21 07:07:53;;;;;;;24.57;4.58;;;;;;;22.22;69.66;99212.66;1815339;79;21034;-76
2022/08/21 07:10:20;;;;;;;31.05;4.70;;;;;;;22.29;69.37;99209.81;1807297;79;20986;-75
2022/08/21 07:12:47;;;;;;;34.27;5.62;;;;;;;22.36;68.95;99208.31;1811822;78;21011;-76
2022/08/21 07:15:14;;;;;;;24.85;5.08;;;;;;;22.46;68.87;99215.05;1809788;79;21719;-76
2022/08/21 07:17:41;;;;;;;27.13;5.28;;;;;;;22.54;68.91;99211.66;1809721;79;21360;-77
2022/08/21 07:20:08;;;;;;;27.27;4.87;;;;;;;22.61;68.65;99208.31;1809655;79;21043;-75
2022/08/21 07:22:36;;;;;;;21.25;4.25;;;;;;;22.71;68.26;99202.10;1809964;79;21436;-76
2022/08/21 07:25:04;;;;;;;38.23;4.97;;;;;;;22.80;67.98;99202.13;1810054;79;20984;-76
2022/08/21 07:27:31;;;;;;;28.25;4.75;;;;;;;22.89;67.24;99201.77;1809948;79;21089;-76
2022/08/21 07:29:58;;;;;;;23.62;4.72;;;;;;;22.95;67.39;99205.25;1809524;79;21011;-76
2022/08/21 07:32:24;;;;;;;18.82;3.95;;;;;;;23.03;67.67;99203.69;1809773;79;21101;-76
2022/08/21 07:34:52;;;;;;;33.53;5.20;;;;;;;23.12;67.56;99202.89;1809510;79;21050;-76
2022/08/21 07:37:19;;;;;;;28.12;4.00;;;;;;;23.21;67.26;99203.38;1809522;79;21042;-76
2022/08/21 07:39:48;;;;;;;27.82;4.97;;;;;;;23.30;67.26;99198.52;1809853;79;22210;-76
2022/08/21 07:42:15;;;;;;;24.32;5.15;;;;;;;23.41;67.04;99198.84;1809520;78;21098;-76
2022/08/21 07:44:42;;;;;;;24.30;4.65;;;;;;;23.49;66.15;99200.82;1809953;79;21047;-76
2022/08/21 07:47:09;;;;;;;24.40;3.90;;;;;;;23.54;66.02;99203.41;1809786;79;21038;-76
2022/08/21 07:49:36;;;;;;;28.57;4.70;;;;;;;23.60;65.36;99199.30;1809487;79;21018;-76
2022/08/21 07:52:04;;;;;;;26.27;5.12;;;;;;;23.65;65.31;99197.02;1809501;79;21050;-76
2022/08/21 07:54:31;;;;;;;28.73;4.45;;;;;;;23.71;65.03;99192.42;1809603;79;21083;-76
2022/08/21 07:56:58;;;;;;;22.60;4.28;;;;;;;23.80;64.66;99201.95;1809992;79;21023;-76
2022/08/21 07:59:25;;;;;;;27.65;4.90;;;;;;;23.86;64.85;99197.38;1809511;79;21114;-76
2022/08/21 08:01:52;;;;;;;27.82;4.50;;;;;;;23.94;64.90;99190.78;1809879;79;21010;-76
2022/08/21 08:04:19;;;;;;;30.88;4.55;;;;;;;24.03;65.11;99188.54;1809658;79;21545;-76
2022/08/21 08:06:45;;;;;;;34.18;5.37;;;;;;;24.14;64.82;99182.62;1809739;79;21069;-76
2022/08/21 08:09:12;;;;;;;30.23;4.87;;;;;;;24.22;64.00;99186.76;1809435;79;21027;-77
2022/08/21 08:11:41;;;;;;;29.10;4.70;;;;;;;24.28;63.16;99178.95;1809786;79;21011;-76
2022/08/21 08:14:07;;;;;;;27.73;4.80;;;;;;;24.37;62.90;99177.70;1809947;78;21525;-76
2022/08/21 08:16:33;;;;;;;37.20;4.97;;;;;;;24.45;63.07;99176.45;1809781;79;21545;-76
2022/08/21 08:19:00;;;;;;;24.85;4.85;;;;;;;24.54;62.81;99172.02;1809636;79;20984;-77
2022/08/21 08:21:27;;;;;;;31.73;4.70;;;;;;;24.62;63.30;99173.48;1809883;79;21019;-76
2022/08/21 08:23:54;;;;;;;25.92;4.58;;;;;;;24.74;63.18;99172.77;1809925;79;21047;-76
2022/08/21 08:26:20;;;;;;;30.15;4.78;;;;;;;24.85;62.75;99166.66;1809819;79;21593;-76
2022/08/21 08:28:47;;;;;;;29.65;4.65;;;;;;;24.91;61.78;99167.88;1809860;79;21247;-74
2022/08/21 08:31:14;;;;;;;34.95;5.35;;;;;;;24.97;61.44;99167.27;1809711;79;20984;-76
2022/08/21 08:33:41;;;;;;;34.05;5.00;;;;;;;25.06;61.62;99170.87;1809808;79;20969;-76
2022/08/21 08:36:14;;;;;;;28.38;4.60;;;;;;;25.13;60.67;99174.66;1809521;79;21007;-76
2022/08/21 08:38:40;;;;;;;32.75;4.92;;;;;;;25.20;61.52;99173.03;1809789;79;22277;-76
2022/08/21 08:41:14;;;;;;;29.48;4.53;;;;;;;25.30;60.27;99161.34;1809953;79;21232;-76
2022/08/21 08:43:44;;;;;;;34.48;5.08;;;;;;;25.38;61.05;99174.88;1792493;79;20972;-75
2022/08/21 08:46:15;;;;;;;40.48;5.03;;;;;;;25.49;59.94;99176.48;1766182;81;21135;-75
2022/08/21 08:48:55;;;;;;;31.05;4.50;;;;;;;25.55;59.22;99167.27;1766465;81;21078;-75
2022/08/21 08:51:45;;;;;;;40.98;5.25;;;;;;;25.61;59.03;99168.99;1765327;81;21090;-75
2022/08/21 08:54:17;;;;;;;30.82;4.15;;;;;;;25.68;59.00;99172.73;1766227;81;21400;-76
2022/08/21 08:56:44;;;;;;;33.48;4.30;;;;;;;25.81;58.93;99164.23;1766444;81;21487;-75
2022/08/21 08:59:19;;;;;;;39.90;4.95;;;;;;;25.90;57.80;99169.48;1766356;81;22023;-75
2022/08/21 09:01:45;;;;;;;22.70;3.93;;;;;;;25.98;57.89;99166.03;1769376;79;21596;-75
2022/08/21 09:04:13;;;;;;;27.30;4.40;;;;;;;26.04;57.05;99165.88;1766173;81;21266;-75
2022/08/21 09:07:08;;;;;;;35.48;5.37;;;;;;;26.08;56.59;99160.52;1766530;81;21116;-75
2022/08/21 09:09:41;;;;;;;;;;;;;;;26.11;56.48;99165.59;1768864;81;21115;-75
2022/08/21 09:12:28;;;;;;;33.13;4.97;;;;;;;26.14;55.56;99170.16;1766452;81;20474;-75
2022/08/21 09:15:21;;;;;;;28.80;4.33;;;;;;;26.15;55.52;99164.25;1788397;79;20965;-75
2022/08/21 09:18:17;;;;;;;31.07;4.55;;;;;;;26.20;55.43;99168.66;1791759;80;21058;-76
2022/08/21 09:20:58;;;;;;;32.05;3.98;;;;;;;26.23;55.37;99165.64;1791567;79;21095;-76
2022/08/21 09:23:39;;;;;;;31.27;4.87;;;;;;;26.30;55.54;99162.63;1790876;79;21075;-76
2022/08/21 09:26:21;;;;;;;41.18;4.25;;;;;;;26.43;55.75;99169.43;1775239;80;21027;-76
2022/08/21 09:28:54;;;;;;;40.48;4.78;;;;;;;26.55;55.17;99170.80;1791896;80;22830;-76
2022/08/21 09:31:32;;;;;;;34.27;4.67;;;;;;;26.68;55.51;99168.51;1792208;80;21581;-75
2022/08/21 09:34:06;;;;;;;29.55;4.10;;;;;;;26.80;54.10;99165.50;1792070;80;21232;-76
2022/08/21 09:36:47;;;;;;;36.17;3.77;;;;;;;26.88;54.46;99160.09;1790768;79;21039;-75
2022/08/21 09:39:34;;;;;;;27.35;4.12;;;;;;;26.99;53.44;99158.42;1791871;80;21123;-76
2022/08/21 09:42:06;;;;;;;26.10;4.62;;;;;;;27.07;51.56;99158.95;1791466;79;21055;-75
2022/08/21 09:44:39;;;;;;;26.77;4.35;;;;;;;27.10;50.45;99156.40;1792253;80;21054;-75
2022/08/21 09:47:05;;;;;;;36.28;4.97;;;;;;;27.12;50.23;99162.47;1792343;79;21852;-75
2022/08/21 09:49:37;;;;;;;42.93;4.83;;;;;;;27.16;50.58;99157.08;1791750;80;20961;-75
2022/08/21 09:52:15;;;;;;;32.83;4.25;;;;;;;27.23;51.04;99149.50;1773653;80;21696;-75
2022/08/21 09:54:42;;;;;;;27.93;4.60;;;;;;;27.34;50.70;99155.60;1740285;82;21048;-76
2022/08/21 10:00:10;;;;;;;33.00;4.45;;;;;;;27.56;50.78;99148.13;1803056;79;21232;-76
2022/08/21 10:02:37;;;;;;;24.32;3.70;;;;;;;27.71;49.10;99155.03;1770659;80;21054;-75
2022/08/21 10:05:22;;;;;;;31.97;3.58;;;;;;;27.78;47.48;99160.07;1740863;82;21119;-75
2022/08/21 10:07:49;;;;;;;33.30;4.08;;;;;;;27.83;46.91;99150.61;1776745;79;21027;-75
2022/08/21 10:10:29;;;;;;;32.45;3.80;;;;;;;27.86;46.74;99150.27;1803085;79;21865;-75
2022/08/21 10:13:08;;;;;;;27.50;4.05;;;;;;;27.92;46.42;99142.80;1803595;79;21793;-75
2022/08/21 10:16:05;;;;;;;34.90;4.12;;;;;;;28.00;46.33;99148.22;1802751;79;21019;-75
2022/08/21 10:18:44;;;;;;;29.80;4.12;;;;;;;28.03;45.69;99146.52;1803001;79;21169;-75
2022/08/21 10:21:24;;;;;;;27.87;3.85;;;;;;;28.04;45.22;99142.81;1797904;79;21531;-76
2022/08/21 10:24:14;;;;;;;30.82;3.90;;;;;;;28.04;45.39;99148.22;1752927;80;21684;-75
2022/08/21 10:27:07;;;;;;;39.08;3.58;;;;;;;28.06;46.65;99146.17;1798658;79;21175;-75
2022/08/21 10:29:43;;;;;;;21.77;3.95;;;;;;;28.09;45.46;99132.30;1803042;79;21055;-74
2022/08/21 10:32:48;;;;;;;36.68;4.00;;;;;;;28.15;46.32;99133.45;1803131;79;21491;-75
2022/08/21 10:35:33;;;;;;;31.70;4.30;;;;;;;28.23;45.19;99129.88;1803542;79;21640;-76
2022/08/21 10:38:39;;;;;;;19.70;3.50;;;;;;;28.30;45.36;99133.03;1803265;79;21610;-76
2022/08/21 10:41:14;;;;;;;26.95;3.60;;;;;;;28.39;45.05;99134.34;1803251;79;22393;-76
2022/08/21 10:43:55;;;;;;;28.07;3.80;;;;;;;28.48;44.45;99135.48;1802029;79;21078;-76
2022/08/21 10:46:36;;;;;;;27.40;4.62;;;;;;;28.55;44.10;99130.20;1810629;79;20993;-76
2022/08/21 10:49:23;;;;;;;33.58;5.05;;;;;;;28.58;43.18;99128.53;1779805;80;20999;-75
2022/08/21 10:52:22;;;;;;;31.77;4.87;;;;;;;28.58;43.16;99123.60;1779446;80;21128;-75
2022/08/21 10:55:09;;;;;;;35.80;4.50;;;;;;;28.60;43.87;99127.00;1766552;80;21208;-75
2022/08/21 10:57:57;;;;;;;38.50;4.72;;;;;;;28.63;42.81;99123.42;1815244;79;21044;-75
2022/08/21 11:00:36;;;;;;;27.22;3.20;;;;;;;28.65;43.46;99129.48;1810027;78;21054;-75
2022/08/21 11:03:14;;;;;;;26.87;3.75;;;;;;;28.70;42.91;99119.48;1807178;79;21043;-75
2022/08/21 11:05:49;;;;;;;29.32;3.85;;;;;;;28.77;43.51;99120.96;1782734;80;21019;-75
2022/08/21 11:08:33;;;;;;;27.10;3.60;;;;;;;28.83;42.88;99119.73;1810438;79;21211;-75
2022/08/21 11:11:28;;;;;;;27.50;3.67;;;;;;;28.91;42.95;99121.51;1745000;79;20988;-75
2022/08/21 11:14:11;;;;;;;36.98;4.90;;;;;;;28.98;42.26;99114.86;1810826;78;21645;-75
2022/08/21 11:16:45;;;;;;;27.00;3.85;;;;;;;29.04;42.58;99117.68;1813258;78;21067;-75
2022/08/21 11:19:22;;;;;;;30.90;3.50;;;;;;;29.13;43.04;99115.73;1812972;79;21067;-76
2022/08/21 11:22:00;;;;;;;22.75;3.60;;;;;;;29.24;42.61;99119.92;1813060;79;21110;-75
2022/08/21 11:24:34;;;;;;;37.63;3.55;;;;;;;29.33;42.58;99116.09;1813413;79;21093;-75
2022/08/21 11:27:12;;;;;;;28.05;3.55;;;;;;;29.44;41.75;99103.98;1810391;79;21046;-76
2022/08/21 11:29:39;;;;;;;19.87;3.37;;;;;;;29.54;41.60;99103.19;1813047;79;21069;-75
2022/08/21 11:32:17;;;;;;;31.68;3.70;;;;;;;29.65;41.34;99097.81;1813014;79;21050;-75
2022/08/21 11:34:58;;;;;;;27.85;3.40;;;;;;;29.74;41.07;99110.27;1813100;79;21209;-76
2022/08/21 11:38:04;;;;;;;25.10;3.65;;;;;;;29.86;41.01;99107.95;1812909;79;21530;-75
2022/08/21 11:41:05;;;;;;;22.40;3.30;;;;;;;29.93;40.87;99102.62;1766040;79;21514;-74
2022/08/21 11:43:39;;;;;;;24.52;4.15;;;;;;;30.00;41.22;99107.08;1813052;78;21101;-75
2022/08/21 11:46:15;;;;;;;;;;;;;;;30.11;40.46;99099.48;1815851;79;20920;-75